sensor_id;sensor_type;location;lat;lon;timestamp;P1;durP1;ratioP1;P2;durP2;ratioP2
19149;SDS011;9707;49.158;8.632;2022-07-24T00:01:49;8.20;;;7.40;;
19149;SDS011;9707;49.158;8.632;2022-07-24T00:07:35;8.15;;;7.07;;
19149;SDS011;9707;49.158;8.632;2022-07-24T00:17:00;8.75;;;7.55;;
19149;SDS011;9707;49.158;8.632;2022-07-24T00:39:42;10.68;;;7.43;;
19149;SDS011;9707;49.158;8.632;2022-07-24T00:45:29;8.85;;;7.95;;
19149;SDS011;9707;49.158;8.632;2022-07-24T01:04:27;9.60;;;7.53;;
19149;SDS011;9707;49.158;8.632;2022-07-24T01:06:52;9.18;;;7.78;;
19149;SDS011;9707;49.158;8.632;2022-07-24T01:09:18;8.25;;;7.45;;
19149;SDS011;9707;49.158;8.632;2022-07-24T01:11:44;12.48;;;8.05;;
19149;SDS011;9707;49.158;8.632;2022-07-24T01:14:10;9.07;;;7.63;;
19149;SDS011;9707;49.158;8.632;2022-07-24T01:16:37;8.90;;;7.90;;
19149;SDS011;9707;49.158;8.632;2022-07-24T01:19:03;9.70;;;8.13;;
19149;SDS011;9707;49.158;8.632;2022-07-24T01:21:29;11.13;;;8.05;;
19149;SDS011;9707;49.158;8.632;2022-07-24T01:23:54;9.10;;;7.78;;
19149;SDS011;9707;49.158;8.632;2022-07-24T01:26:20;10.00;;;8.13;;
19149;SDS011;9707;49.158;8.632;2022-07-24T01:28:45;10.52;;;7.57;;
19149;SDS011;9707;49.158;8.632;2022-07-24T01:31:11;10.65;;;7.32;;
19149;SDS011;9707;49.158;8.632;2022-07-24T01:33:36;9.20;;;8.30;;
19149;SDS011;9707;49.158;8.632;2022-07-24T01:36:01;8.88;;;7.90;;
19149;SDS011;9707;49.158;8.632;2022-07-24T01:38:28;9.43;;;7.18;;
19149;SDS011;9707;49.158;8.632;2022-07-24T01:40:53;9.52;;;8.43;;
19149;SDS011;9707;49.158;8.632;2022-07-24T01:43:19;9.55;;;8.07;;
19149;SDS011;9707;49.158;8.632;2022-07-24T01:45:44;10.23;;;8.02;;
19149;SDS011;9707;49.158;8.632;2022-07-24T01:48:10;9.30;;;8.35;;
19149;SDS011;9707;49.158;8.632;2022-07-24T01:50:36;8.75;;;7.88;;
19149;SDS011;9707;49.158;8.632;2022-07-24T01:53:01;7.90;;;6.88;;
19149;SDS011;9707;49.158;8.632;2022-07-24T01:55:27;8.82;;;7.95;;
19149;SDS011;9707;49.158;8.632;2022-07-24T01:57:52;9.25;;;7.68;;
19149;SDS011;9707;49.158;8.632;2022-07-24T02:00:18;9.25;;;8.35;;
19149;SDS011;9707;49.158;8.632;2022-07-24T02:02:43;9.32;;;8.27;;
19149;SDS011;9707;49.158;8.632;2022-07-24T02:05:10;11.05;;;7.70;;
19149;SDS011;9707;49.158;8.632;2022-07-24T02:07:38;13.05;;;8.55;;
19149;SDS011;9707;49.158;8.632;2022-07-24T02:10:04;10.50;;;8.13;;
19149;SDS011;9707;49.158;8.632;2022-07-24T02:12:30;11.93;;;8.90;;
19149;SDS011;9707;49.158;8.632;2022-07-24T02:14:55;9.15;;;8.25;;
19149;SDS011;9707;49.158;8.632;2022-07-24T02:17:20;9.13;;;8.23;;
19149;SDS011;9707;49.158;8.632;2022-07-24T02:19:46;9.45;;;8.15;;
19149;SDS011;9707;49.158;8.632;2022-07-24T02:22:11;9.13;;;8.10;;
19149;SDS011;9707;49.158;8.632;2022-07-24T02:24:36;12.25;;;8.55;;
19149;SDS011;9707;49.158;8.632;2022-07-24T02:27:01;10.48;;;8.65;;
19149;SDS011;9707;49.158;8.632;2022-07-24T02:29:27;10.60;;;8.18;;
19149;SDS011;9707;49.158;8.632;2022-07-24T02:31:52;9.43;;;8.23;;
19149;SDS011;9707;49.158;8.632;2022-07-24T02:34:18;9.73;;;8.20;;
19149;SDS011;9707;49.158;8.632;2022-07-24T02:36:43;9.20;;;7.75;;
19149;SDS011;9707;49.158;8.632;2022-07-24T02:39:08;8.60;;;7.78;;
19149;SDS011;9707;49.158;8.632;2022-07-24T02:41:34;9.70;;;8.43;;
19149;SDS011;9707;49.158;8.632;2022-07-24T02:43:59;9.68;;;8.73;;
19149;SDS011;9707;49.158;8.632;2022-07-24T02:46:24;9.88;;;8.73;;
19149;SDS011;9707;49.158;8.632;2022-07-24T02:48:50;12.55;;;8.50;;
19149;SDS011;9707;49.158;8.632;2022-07-24T02:51:15;8.43;;;7.53;;
19149;SDS011;9707;49.158;8.632;2022-07-24T02:53:40;8.63;;;7.55;;
19149;SDS011;9707;49.158;8.632;2022-07-24T02:56:06;8.63;;;7.20;;
19149;SDS011;9707;49.158;8.632;2022-07-24T02:58:31;8.48;;;7.68;;
19149;SDS011;9707;49.158;8.632;2022-07-24T03:00:57;10.20;;;7.88;;
19149;SDS011;9707;49.158;8.632;2022-07-24T03:03:22;8.50;;;7.60;;
19149;SDS011;9707;49.158;8.632;2022-07-24T03:05:47;9.35;;;8.05;;
19149;SDS011;9707;49.158;8.632;2022-07-24T03:08:13;8.80;;;7.90;;
19149;SDS011;9707;49.158;8.632;2022-07-24T03:10:38;10.82;;;7.85;;
19149;SDS011;9707;49.158;8.632;2022-07-24T03:13:04;8.90;;;7.50;;
19149;SDS011;9707;49.158;8.632;2022-07-24T03:15:30;9.68;;;8.35;;
19149;SDS011;9707;49.158;8.632;2022-07-24T03:17:56;8.75;;;7.80;;
19149;SDS011;9707;49.158;8.632;2022-07-24T03:20:23;12.48;;;7.90;;
19149;SDS011;9707;49.158;8.632;2022-07-24T03:22:49;9.60;;;8.60;;
19149;SDS011;9707;49.158;8.632;2022-07-24T03:25:15;8.88;;;7.97;;
19149;SDS011;9707;49.158;8.632;2022-07-24T03:27:41;8.73;;;7.90;;
19149;SDS011;9707;49.158;8.632;2022-07-24T03:30:07;11.10;;;8.10;;
19149;SDS011;9707;49.158;8.632;2022-07-24T03:32:33;10.48;;;8.10;;
19149;SDS011;9707;49.158;8.632;2022-07-24T03:34:59;8.27;;;7.47;;
19149;SDS011;9707;49.158;8.632;2022-07-24T03:37:24;10.57;;;7.95;;
19149;SDS011;9707;49.158;8.632;2022-07-24T03:39:50;9.30;;;7.22;;
19149;SDS011;9707;49.158;8.632;2022-07-24T03:42:15;8.70;;;7.72;;
19149;SDS011;9707;49.158;8.632;2022-07-24T03:44:41;9.63;;;7.30;;
19149;SDS011;9707;49.158;8.632;2022-07-24T03:47:06;8.30;;;7.50;;
19149;SDS011;9707;49.158;8.632;2022-07-24T03:49:32;8.77;;;7.85;;
19149;SDS011;9707;49.158;8.632;2022-07-24T03:51:57;8.30;;;7.43;;
19149;SDS011;9707;49.158;8.632;2022-07-24T03:54:22;10.13;;;7.57;;
19149;SDS011;9707;49.158;8.632;2022-07-24T03:56:48;8.80;;;7.90;;
19149;SDS011;9707;49.158;8.632;2022-07-24T03:59:14;11.25;;;7.88;;
19149;SDS011;9707;49.158;8.632;2022-07-24T04:01:39;8.73;;;7.93;;
19149;SDS011;9707;49.158;8.632;2022-07-24T04:04:05;10.00;;;8.13;;
19149;SDS011;9707;49.158;8.632;2022-07-24T04:06:31;8.75;;;7.90;;
19149;SDS011;9707;49.158;8.632;2022-07-24T04:08:57;9.10;;;7.40;;
19149;SDS011;9707;49.158;8.632;2022-07-24T04:11:23;10.77;;;8.23;;
19149;SDS011;9707;49.158;8.632;2022-07-24T04:13:48;9.82;;;8.32;;
19149;SDS011;9707;49.158;8.632;2022-07-24T04:16:14;8.75;;;7.85;;
19149;SDS011;9707;49.158;8.632;2022-07-24T04:18:39;9.80;;;8.10;;
19149;SDS011;9707;49.158;8.632;2022-07-24T04:21:05;9.10;;;8.20;;
19149;SDS011;9707;49.158;8.632;2022-07-24T04:23:31;9.07;;;8.15;;
19149;SDS011;9707;49.158;8.632;2022-07-24T04:25:56;9.95;;;8.00;;
19149;SDS011;9707;49.158;8.632;2022-07-24T04:28:22;9.75;;;8.48;;
19149;SDS011;9707;49.158;8.632;2022-07-24T04:30:47;11.70;;;8.48;;
19149;SDS011;9707;49.158;8.632;2022-07-24T04:33:12;8.50;;;7.65;;
19149;SDS011;9707;49.158;8.632;2022-07-24T04:35:37;9.57;;;8.65;;
19149;SDS011;9707;49.158;8.632;2022-07-24T04:38:03;9.25;;;8.32;;
19149;SDS011;9707;49.158;8.632;2022-07-24T04:40:28;12.02;;;8.57;;
19149;SDS011;9707;49.158;8.632;2022-07-24T04:42:53;10.50;;;8.25;;
19149;SDS011;9707;49.158;8.632;2022-07-24T04:45:19;14.35;;;8.70;;
19149;SDS011;9707;49.158;8.632;2022-07-24T04:47:44;8.77;;;7.70;;
19149;SDS011;9707;49.158;8.632;2022-07-24T04:50:10;9.38;;;8.43;;
19149;SDS011;9707;49.158;8.632;2022-07-24T04:52:36;10.30;;;8.68;;
19149;SDS011;9707;49.158;8.632;2022-07-24T04:55:01;10.75;;;9.63;;
19149;SDS011;9707;49.158;8.632;2022-07-24T04:57:27;10.88;;;8.70;;
19149;SDS011;9707;49.158;8.632;2022-07-24T04:59:52;10.45;;;9.35;;
19149;SDS011;9707;49.158;8.632;2022-07-24T05:02:17;9.05;;;8.15;;
19149;SDS011;9707;49.158;8.632;2022-07-24T05:04:43;9.65;;;8.65;;
19149;SDS011;9707;49.158;8.632;2022-07-24T05:07:08;12.00;;;8.70;;
19149;SDS011;9707;49.158;8.632;2022-07-24T05:09:33;10.93;;;8.15;;
19149;SDS011;9707;49.158;8.632;2022-07-24T05:11:59;12.02;;;8.63;;
19149;SDS011;9707;49.158;8.632;2022-07-24T05:14:24;10.45;;;8.27;;
19149;SDS011;9707;49.158;8.632;2022-07-24T05:16:49;12.98;;;9.40;;
19149;SDS011;9707;49.158;8.632;2022-07-24T05:19:15;9.77;;;8.73;;
19149;SDS011;9707;49.158;8.632;2022-07-24T05:21:40;9.95;;;8.75;;
19149;SDS011;9707;49.158;8.632;2022-07-24T05:24:06;11.50;;;9.25;;
19149;SDS011;9707;49.158;8.632;2022-07-24T05:26:31;11.60;;;8.65;;
19149;SDS011;9707;49.158;8.632;2022-07-24T05:28:58;10.02;;;8.57;;
19149;SDS011;9707;49.158;8.632;2022-07-24T05:31:24;7.93;;;7.00;;
19149;SDS011;9707;49.158;8.632;2022-07-24T05:33:50;12.52;;;8.00;;
19149;SDS011;9707;49.158;8.632;2022-07-24T05:36:15;13.30;;;8.85;;
19149;SDS011;9707;49.158;8.632;2022-07-24T05:38:40;10.85;;;8.52;;
19149;SDS011;9707;49.158;8.632;2022-07-24T05:41:06;10.25;;;9.07;;
19149;SDS011;9707;49.158;8.632;2022-07-24T05:43:31;9.82;;;8.07;;
19149;SDS011;9707;49.158;8.632;2022-07-24T05:45:56;9.27;;;7.70;;
19149;SDS011;9707;49.158;8.632;2022-07-24T05:48:22;12.23;;;8.07;;
19149;SDS011;9707;49.158;8.632;2022-07-24T05:50:47;8.93;;;8.00;;
19149;SDS011;9707;49.158;8.632;2022-07-24T05:53:12;9.43;;;7.88;;
19149;SDS011;9707;49.158;8.632;2022-07-24T05:55:37;10.18;;;8.43;;
19149;SDS011;9707;49.158;8.632;2022-07-24T05:58:03;8.48;;;7.68;;
19149;SDS011;9707;49.158;8.632;2022-07-24T06:00:29;8.93;;;8.02;;
19149;SDS011;9707;49.158;8.632;2022-07-24T06:02:54;8.15;;;7.35;;
19149;SDS011;9707;49.158;8.632;2022-07-24T06:05:20;11.60;;;7.90;;
19149;SDS011;9707;49.158;8.632;2022-07-24T06:07:45;8.23;;;7.40;;
19149;SDS011;9707;49.158;8.632;2022-07-24T06:10:11;10.20;;;7.72;;
19149;SDS011;9707;49.158;8.632;2022-07-24T06:12:37;8.73;;;7.68;;
19149;SDS011;9707;49.158;8.632;2022-07-24T06:15:02;9.45;;;7.75;;
19149;SDS011;9707;49.158;8.632;2022-07-24T06:17:28;8.65;;;7.25;;
19149;SDS011;9707;49.158;8.632;2022-07-24T06:19:53;8.68;;;7.75;;
19149;SDS011;9707;49.158;8.632;2022-07-24T06:22:19;8.27;;;7.35;;
19149;SDS011;9707;49.158;8.632;2022-07-24T06:24:44;8.20;;;7.40;;
19149;SDS011;9707;49.158;8.632;2022-07-24T06:27:09;10.68;;;8.55;;
19149;SDS011;9707;49.158;8.632;2022-07-24T06:29:35;8.30;;;7.50;;
19149;SDS011;9707;49.158;8.632;2022-07-24T06:32:00;9.07;;;8.07;;
19149;SDS011;9707;49.158;8.632;2022-07-24T06:34:26;8.80;;;7.90;;
19149;SDS011;9707;49.158;8.632;2022-07-24T06:36:51;9.88;;;8.70;;
19149;SDS011;9707;49.158;8.632;2022-07-24T06:39:17;9.63;;;8.60;;
19149;SDS011;9707;49.158;8.632;2022-07-24T06:41:43;8.82;;;7.90;;
19149;SDS011;9707;49.158;8.632;2022-07-24T06:44:08;13.07;;;8.68;;
19149;SDS011;9707;49.158;8.632;2022-07-24T06:46:33;9.02;;;8.13;;
19149;SDS011;9707;49.158;8.632;2022-07-24T06:48:59;11.02;;;8.23;;
19149;SDS011;9707;49.158;8.632;2022-07-24T06:51:24;8.10;;;7.30;;
19149;SDS011;9707;49.158;8.632;2022-07-24T06:53:49;9.25;;;8.35;;
19149;SDS011;9707;49.158;8.632;2022-07-24T06:56:15;10.05;;;7.75;;
19149;SDS011;9707;49.158;8.632;2022-07-24T06:58:40;8.50;;;7.60;;
19149;SDS011;9707;49.158;8.632;2022-07-24T07:01:06;9.65;;;7.93;;
19149;SDS011;9707;49.158;8.632;2022-07-24T07:03:31;8.02;;;7.22;;
19149;SDS011;9707;49.158;8.632;2022-07-24T07:05:56;7.95;;;7.15;;
19149;SDS011;9707;49.158;8.632;2022-07-24T07:08:22;8.43;;;6.78;;
19149;SDS011;9707;49.158;8.632;2022-07-24T07:10:47;8.38;;;7.47;;
19149;SDS011;9707;49.158;8.632;2022-07-24T07:13:12;8.98;;;7.57;;
19149;SDS011;9707;49.158;8.632;2022-07-24T07:15:38;8.20;;;7.35;;
19149;SDS011;9707;49.158;8.632;2022-07-24T07:18:03;9.15;;;7.15;;
19149;SDS011;9707;49.158;8.632;2022-07-24T07:20:28;8.80;;;7.53;;
19149;SDS011;9707;49.158;8.632;2022-07-24T07:22:54;8.95;;;6.95;;
19149;SDS011;9707;49.158;8.632;2022-07-24T07:25:19;7.70;;;6.90;;
19149;SDS011;9707;49.158;8.632;2022-07-24T07:27:45;9.35;;;7.15;;
19149;SDS011;9707;49.158;8.632;2022-07-24T07:30:10;9.05;;;6.88;;
19149;SDS011;9707;49.158;8.632;2022-07-24T07:32:37;9.82;;;7.07;;
19149;SDS011;9707;49.158;8.632;2022-07-24T07:35:03;10.48;;;6.60;;
19149;SDS011;9707;49.158;8.632;2022-07-24T07:37:29;9.82;;;6.60;;
19149;SDS011;9707;49.158;8.632;2022-07-24T07:39:54;7.38;;;6.15;;
19149;SDS011;9707;49.158;8.632;2022-07-24T07:42:20;7.72;;;6.65;;
19149;SDS011;9707;49.158;8.632;2022-07-24T07:44:45;9.02;;;7.05;;
19149;SDS011;9707;49.158;8.632;2022-07-24T07:47:12;7.68;;;6.88;;
19149;SDS011;9707;49.158;8.632;2022-07-24T07:49:38;8.25;;;6.97;;
19149;SDS011;9707;49.158;8.632;2022-07-24T07:52:03;7.32;;;6.32;;
19149;SDS011;9707;49.158;8.632;2022-07-24T07:54:29;8.07;;;6.15;;
19149;SDS011;9707;49.158;8.632;2022-07-24T07:56:54;8.05;;;6.68;;
19149;SDS011;9707;49.158;8.632;2022-07-24T07:59:19;9.35;;;6.60;;
19149;SDS011;9707;49.158;8.632;2022-07-24T08:01:45;8.63;;;7.43;;
19149;SDS011;9707;49.158;8.632;2022-07-24T08:04:10;8.32;;;7.47;;
19149;SDS011;9707;49.158;8.632;2022-07-24T08:06:36;8.40;;;6.47;;
19149;SDS011;9707;49.158;8.632;2022-07-24T08:09:01;7.97;;;7.18;;
19149;SDS011;9707;49.158;8.632;2022-07-24T08:11:27;10.43;;;6.68;;
19149;SDS011;9707;49.158;8.632;2022-07-24T08:13:52;7.68;;;6.75;;
19149;SDS011;9707;49.158;8.632;2022-07-24T08:16:17;11.25;;;6.97;;
19149;SDS011;9707;49.158;8.632;2022-07-24T08:18:43;9.85;;;6.45;;
19149;SDS011;9707;49.158;8.632;2022-07-24T08:21:08;9.13;;;6.97;;
19149;SDS011;9707;49.158;8.632;2022-07-24T08:23:34;7.55;;;6.72;;
19149;SDS011;9707;49.158;8.632;2022-07-24T08:25:59;7.43;;;6.53;;
19149;SDS011;9707;49.158;8.632;2022-07-24T08:28:24;7.07;;;6.05;;
19149;SDS011;9707;49.158;8.632;2022-07-24T08:30:50;7.32;;;6.43;;
19149;SDS011;9707;49.158;8.632;2022-07-24T08:33:16;7.90;;;6.32;;
19149;SDS011;9707;49.158;8.632;2022-07-24T08:35:41;6.75;;;5.97;;
19149;SDS011;9707;49.158;8.632;2022-07-24T08:38:06;8.15;;;5.80;;
19149;SDS011;9707;49.158;8.632;2022-07-24T08:40:33;7.28;;;6.25;;
19149;SDS011;9707;49.158;8.632;2022-07-24T08:43:00;9.30;;;6.50;;
19149;SDS011;9707;49.158;8.632;2022-07-24T08:45:26;7.72;;;6.43;;
19149;SDS011;9707;49.158;8.632;2022-07-24T08:47:52;8.35;;;6.28;;
19149;SDS011;9707;49.158;8.632;2022-07-24T08:50:20;7.07;;;6.38;;
19149;SDS011;9707;49.158;8.632;2022-07-24T08:52:46;8.10;;;6.47;;
19149;SDS011;9707;49.158;8.632;2022-07-24T08:55:12;7.53;;;6.45;;
19149;SDS011;9707;49.158;8.632;2022-07-24T08:57:38;7.32;;;6.13;;
19149;SDS011;9707;49.158;8.632;2022-07-24T09:00:03;7.82;;;6.75;;
19149;SDS011;9707;49.158;8.632;2022-07-24T09:02:29;7.53;;;6.18;;
19149;SDS011;9707;49.158;8.632;2022-07-24T09:04:58;9.15;;;6.28;;
19149;SDS011;9707;49.158;8.632;2022-07-24T09:07:26;6.72;;;6.03;;
19149;SDS011;9707;49.158;8.632;2022-07-24T09:12:24;7.43;;;6.10;;
19149;SDS011;9707;49.158;8.632;2022-07-24T09:14:50;6.80;;;6.13;;
19149;SDS011;9707;49.158;8.632;2022-07-24T09:17:16;7.13;;;6.22;;
19149;SDS011;9707;49.158;8.632;2022-07-24T09:27:33;5.97;;;5.38;;
19149;SDS011;9707;49.158;8.632;2022-07-24T09:30:32;6.90;;;5.70;;
19149;SDS011;9707;49.158;8.632;2022-07-24T09:35:38;6.40;;;5.55;;
19149;SDS011;9707;49.158;8.632;2022-07-24T09:38:08;6.45;;;5.40;;
19149;SDS011;9707;49.158;8.632;2022-07-24T09:40:37;7.28;;;6.10;;
19149;SDS011;9707;49.158;8.632;2022-07-24T09:46:05;7.80;;;5.82;;
19149;SDS011;9707;49.158;8.632;2022-07-24T09:48:32;8.20;;;5.68;;
19149;SDS011;9707;49.158;8.632;2022-07-24T09:51:18;6.93;;;5.25;;
19149;SDS011;9707;49.158;8.632;2022-07-24T09:53:44;6.82;;;6.07;;
19149;SDS011;9707;49.158;8.632;2022-07-24T09:56:12;6.10;;;5.50;;
19149;SDS011;9707;49.158;8.632;2022-07-24T10:01:10;9.73;;;6.32;;
19149;SDS011;9707;49.158;8.632;2022-07-24T10:03:37;6.65;;;5.45;;
19149;SDS011;9707;49.158;8.632;2022-07-24T10:06:05;5.70;;;5.13;;
19149;SDS011;9707;49.158;8.632;2022-07-24T10:08:32;8.95;;;5.47;;
19149;SDS011;9707;49.158;8.632;2022-07-24T10:10:59;6.45;;;5.30;;
19149;SDS011;9707;49.158;8.632;2022-07-24T10:13:26;5.60;;;5.05;;
19149;SDS011;9707;49.158;8.632;2022-07-24T10:21:18;6.68;;;5.82;;
19149;SDS011;9707;49.158;8.632;2022-07-24T10:26:26;7.78;;;5.28;;
19149;SDS011;9707;49.158;8.632;2022-07-24T10:28:58;8.32;;;5.70;;
19149;SDS011;9707;49.158;8.632;2022-07-24T10:34:24;7.88;;;5.05;;
19149;SDS011;9707;49.158;8.632;2022-07-24T10:37:04;5.97;;;5.22;;
19149;SDS011;9707;49.158;8.632;2022-07-24T10:42:29;6.18;;;5.57;;
19149;SDS011;9707;49.158;8.632;2022-07-24T10:45:12;5.20;;;4.70;;
19149;SDS011;9707;49.158;8.632;2022-07-24T10:47:39;5.93;;;5.00;;
19149;SDS011;9707;49.158;8.632;2022-07-24T10:50:04;5.50;;;4.82;;
19149;SDS011;9707;49.158;8.632;2022-07-24T10:52:31;6.43;;;4.78;;
19149;SDS011;9707;49.158;8.632;2022-07-24T11:00:40;6.50;;;5.25;;
19149;SDS011;9707;49.158;8.632;2022-07-24T11:03:17;6.13;;;4.80;;
19149;SDS011;9707;49.158;8.632;2022-07-24T11:05:43;5.70;;;4.80;;
19149;SDS011;9707;49.158;8.632;2022-07-24T11:08:30;5.03;;;4.57;;
19149;SDS011;9707;49.158;8.632;2022-07-24T11:11:19;5.43;;;4.75;;
19149;SDS011;9707;49.158;8.632;2022-07-24T11:13:46;4.97;;;4.30;;
19149;SDS011;9707;49.158;8.632;2022-07-24T11:26:38;4.85;;;4.35;;
19149;SDS011;9707;49.158;8.632;2022-07-24T11:29:25;5.05;;;4.55;;
19149;SDS011;9707;49.158;8.632;2022-07-24T11:32:09;5.95;;;4.50;;
19149;SDS011;9707;49.158;8.632;2022-07-24T11:34:39;4.50;;;4.10;;
19149;SDS011;9707;49.158;8.632;2022-07-24T11:37:08;5.15;;;4.65;;
19149;SDS011;9707;49.158;8.632;2022-07-24T11:39:35;5.53;;;4.00;;
19149;SDS011;9707;49.158;8.632;2022-07-24T11:42:03;5.55;;;4.63;;
19149;SDS011;9707;49.158;8.632;2022-07-24T11:44:31;5.50;;;4.15;;
19149;SDS011;9707;49.158;8.632;2022-07-24T11:46:59;5.00;;;4.50;;
19149;SDS011;9707;49.158;8.632;2022-07-24T11:49:30;4.32;;;3.80;;
19149;SDS011;9707;49.158;8.632;2022-07-24T11:51:55;4.05;;;3.72;;
19149;SDS011;9707;49.158;8.632;2022-07-24T11:54:25;4.70;;;3.97;;
19149;SDS011;9707;49.158;8.632;2022-07-24T11:56:52;5.00;;;4.43;;
19149;SDS011;9707;49.158;8.632;2022-07-24T11:59:29;5.13;;;4.32;;
19149;SDS011;9707;49.158;8.632;2022-07-24T12:02:08;4.70;;;4.18;;
19149;SDS011;9707;49.158;8.632;2022-07-24T12:04:35;4.72;;;4.30;;
19149;SDS011;9707;49.158;8.632;2022-07-24T12:07:06;5.97;;;3.78;;
19149;SDS011;9707;49.158;8.632;2022-07-24T12:09:32;4.45;;;4.05;;
19149;SDS011;9707;49.158;8.632;2022-07-24T12:15:15;5.53;;;4.03;;
19149;SDS011;9707;49.158;8.632;2022-07-24T12:20:21;6.88;;;4.47;;
19149;SDS011;9707;49.158;8.632;2022-07-24T12:22:47;5.07;;;4.22;;
19149;SDS011;9707;49.158;8.632;2022-07-24T12:25:13;5.00;;;4.50;;
19149;SDS011;9707;49.158;8.632;2022-07-24T12:27:43;4.75;;;4.25;;
19149;SDS011;9707;49.158;8.632;2022-07-24T12:30:20;4.38;;;3.97;;
19149;SDS011;9707;49.158;8.632;2022-07-24T12:35:28;4.88;;;4.35;;
19149;SDS011;9707;49.158;8.632;2022-07-24T12:37:55;6.70;;;4.30;;
19149;SDS011;9707;49.158;8.632;2022-07-24T12:40:22;4.70;;;4.30;;
19149;SDS011;9707;49.158;8.632;2022-07-24T12:43:22;4.85;;;4.32;;
19149;SDS011;9707;49.158;8.632;2022-07-24T12:45:41;4.60;;;4.20;;
19149;SDS011;9707;49.158;8.632;2022-07-24T12:48:17;4.40;;;3.85;;
19149;SDS011;9707;49.158;8.632;2022-07-24T12:53:39;4.18;;;3.78;;
19149;SDS011;9707;49.158;8.632;2022-07-24T12:56:14;8.38;;;5.03;;
19149;SDS011;9707;49.158;8.632;2022-07-24T13:01:24;5.43;;;3.92;;
19149;SDS011;9707;49.158;8.632;2022-07-24T13:03:56;5.65;;;4.55;;
19149;SDS011;9707;49.158;8.632;2022-07-24T13:06:31;7.07;;;4.38;;
19149;SDS011;9707;49.158;8.632;2022-07-24T13:08:57;5.05;;;4.50;;
19149;SDS011;9707;49.158;8.632;2022-07-24T13:11:23;4.88;;;4.32;;
19149;SDS011;9707;49.158;8.632;2022-07-24T13:13:48;4.93;;;4.45;;
19149;SDS011;9707;49.158;8.632;2022-07-24T13:16:13;5.55;;;4.47;;
19149;SDS011;9707;49.158;8.632;2022-07-24T13:18:39;5.60;;;4.30;;
19149;SDS011;9707;49.158;8.632;2022-07-24T13:21:04;4.85;;;4.43;;
19149;SDS011;9707;49.158;8.632;2022-07-24T13:23:30;5.20;;;4.70;;
19149;SDS011;9707;49.158;8.632;2022-07-24T13:25:55;6.55;;;4.90;;
19149;SDS011;9707;49.158;8.632;2022-07-24T13:28:20;5.20;;;4.70;;
19149;SDS011;9707;49.158;8.632;2022-07-24T13:30:46;6.13;;;4.80;;
19149;SDS011;9707;49.158;8.632;2022-07-24T13:33:11;5.45;;;4.57;;
19149;SDS011;9707;49.158;8.632;2022-07-24T13:35:36;6.35;;;4.68;;
19149;SDS011;9707;49.158;8.632;2022-07-24T13:38:02;4.95;;;4.50;;
19149;SDS011;9707;49.158;8.632;2022-07-24T13:40:27;5.18;;;4.68;;
19149;SDS011;9707;49.158;8.632;2022-07-24T13:42:52;5.45;;;4.95;;
19149;SDS011;9707;49.158;8.632;2022-07-24T13:45:18;5.85;;;4.90;;
19149;SDS011;9707;49.158;8.632;2022-07-24T13:47:43;5.90;;;5.30;;
19149;SDS011;9707;49.158;8.632;2022-07-24T13:50:09;4.60;;;4.20;;
19149;SDS011;9707;49.158;8.632;2022-07-24T13:52:34;5.10;;;4.60;;
19149;SDS011;9707;49.158;8.632;2022-07-24T13:55:00;5.70;;;4.88;;
19149;SDS011;9707;49.158;8.632;2022-07-24T13:57:25;5.72;;;5.20;;
19149;SDS011;9707;49.158;8.632;2022-07-24T13:59:51;5.22;;;4.53;;
19149;SDS011;9707;49.158;8.632;2022-07-24T14:02:16;5.65;;;4.65;;
19149;SDS011;9707;49.158;8.632;2022-07-24T14:04:41;6.38;;;4.60;;
19149;SDS011;9707;49.158;8.632;2022-07-24T14:07:08;5.95;;;4.75;;
19149;SDS011;9707;49.158;8.632;2022-07-24T14:09:34;5.60;;;5.00;;
19149;SDS011;9707;49.158;8.632;2022-07-24T14:11:59;6.90;;;4.40;;
19149;SDS011;9707;49.158;8.632;2022-07-24T14:14:24;4.82;;;4.38;;
19149;SDS011;9707;49.158;8.632;2022-07-24T14:16:50;6.13;;;4.88;;
19149;SDS011;9707;49.158;8.632;2022-07-24T14:19:15;6.82;;;4.88;;
19149;SDS011;9707;49.158;8.632;2022-07-24T14:21:41;5.68;;;4.78;;
19149;SDS011;9707;49.158;8.632;2022-07-24T14:24:10;6.10;;;4.78;;
19149;SDS011;9707;49.158;8.632;2022-07-24T14:26:36;6.88;;;5.00;;
19149;SDS011;9707;49.158;8.632;2022-07-24T14:29:01;7.25;;;4.97;;
19149;SDS011;9707;49.158;8.632;2022-07-24T14:31:26;8.07;;;4.68;;
19149;SDS011;9707;49.158;8.632;2022-07-24T14:33:52;6.00;;;5.10;;
19149;SDS011;9707;49.158;8.632;2022-07-24T14:36:17;5.95;;;5.35;;
19149;SDS011;9707;49.158;8.632;2022-07-24T14:38:42;5.50;;;4.95;;
19149;SDS011;9707;49.158;8.632;2022-07-24T14:41:08;5.35;;;4.85;;
19149;SDS011;9707;49.158;8.632;2022-07-24T14:43:33;5.35;;;4.65;;
19149;SDS011;9707;49.158;8.632;2022-07-24T14:45:59;5.50;;;5.00;;
19149;SDS011;9707;49.158;8.632;2022-07-24T14:48:24;5.80;;;4.88;;
19149;SDS011;9707;49.158;8.632;2022-07-24T14:50:49;5.03;;;4.53;;
19149;SDS011;9707;49.158;8.632;2022-07-24T14:53:15;6.40;;;4.95;;
19149;SDS011;9707;49.158;8.632;2022-07-24T14:55:40;5.75;;;5.25;;
19149;SDS011;9707;49.158;8.632;2022-07-24T14:58:06;5.65;;;5.03;;
19149;SDS011;9707;49.158;8.632;2022-07-24T15:00:31;5.00;;;4.57;;
19149;SDS011;9707;49.158;8.632;2022-07-24T15:02:57;5.40;;;4.90;;
19149;SDS011;9707;49.158;8.632;2022-07-24T15:05:22;5.50;;;3.92;;
19149;SDS011;9707;49.158;8.632;2022-07-24T15:07:48;4.80;;;4.32;;
19149;SDS011;9707;49.158;8.632;2022-07-24T15:10:13;5.85;;;4.65;;
19149;SDS011;9707;49.158;8.632;2022-07-24T15:12:38;5.47;;;4.88;;
19149;SDS011;9707;49.158;8.632;2022-07-24T15:15:04;6.95;;;4.65;;
19149;SDS011;9707;49.158;8.632;2022-07-24T15:17:29;5.60;;;4.57;;
19149;SDS011;9707;49.158;8.632;2022-07-24T15:19:55;4.93;;;4.43;;
19149;SDS011;9707;49.158;8.632;2022-07-24T15:22:20;7.53;;;5.38;;
19149;SDS011;9707;49.158;8.632;2022-07-24T15:24:46;6.57;;;4.85;;
19149;SDS011;9707;49.158;8.632;2022-07-24T15:27:11;5.65;;;5.15;;
19149;SDS011;9707;49.158;8.632;2022-07-24T15:29:36;5.75;;;5.18;;
19149;SDS011;9707;49.158;8.632;2022-07-24T15:32:02;5.18;;;4.68;;
19149;SDS011;9707;49.158;8.632;2022-07-24T15:34:27;6.25;;;5.03;;
19149;SDS011;9707;49.158;8.632;2022-07-24T15:36:53;5.82;;;5.22;;
19149;SDS011;9707;49.158;8.632;2022-07-24T15:39:18;6.75;;;5.63;;
19149;SDS011;9707;49.158;8.632;2022-07-24T15:41:43;5.20;;;4.20;;
19149;SDS011;9707;49.158;8.632;2022-07-24T15:44:09;8.55;;;5.30;;
19149;SDS011;9707;49.158;8.632;2022-07-24T15:46:34;8.13;;;5.38;;
19149;SDS011;9707;49.158;8.632;2022-07-24T15:49:00;5.88;;;5.28;;
19149;SDS011;9707;49.158;8.632;2022-07-24T15:51:28;4.70;;;4.30;;
19149;SDS011;9707;49.158;8.632;2022-07-24T15:53:54;5.45;;;4.90;;
19149;SDS011;9707;49.158;8.632;2022-07-24T15:56:19;5.43;;;4.80;;
19149;SDS011;9707;49.158;8.632;2022-07-24T15:58:44;7.13;;;4.90;;
19149;SDS011;9707;49.158;8.632;2022-07-24T16:01:10;5.47;;;4.97;;
19149;SDS011;9707;49.158;8.632;2022-07-24T16:03:35;5.50;;;5.00;;
19149;SDS011;9707;49.158;8.632;2022-07-24T16:06:00;6.03;;;5.13;;
19149;SDS011;9707;49.158;8.632;2022-07-24T16:08:26;5.93;;;4.85;;
19149;SDS011;9707;49.158;8.632;2022-07-24T16:10:51;4.97;;;3.95;;
19149;SDS011;9707;49.158;8.632;2022-07-24T16:13:17;5.95;;;5.07;;
19149;SDS011;9707;49.158;8.632;2022-07-24T16:29:02;5.35;;;4.72;;
19149;SDS011;9707;49.158;8.632;2022-07-24T16:44:19;7.20;;;5.15;;
19149;SDS011;9707;49.158;8.632;2022-07-24T16:50:06;5.47;;;4.97;;
19149;SDS011;9707;49.158;8.632;2022-07-24T16:55:53;6.00;;;4.55;;
19149;SDS011;9707;49.158;8.632;2022-07-24T17:21:02;5.53;;;4.75;;
19149;SDS011;9707;49.158;8.632;2022-07-24T17:49:35;7.15;;;5.75;;
19149;SDS011;9707;49.158;8.632;2022-07-24T18:08:48;5.35;;;4.85;;
19149;SDS011;9707;49.158;8.632;2022-07-24T18:18:15;5.38;;;4.82;;
19149;SDS011;9707;49.158;8.632;2022-07-24T18:24:02;5.43;;;4.90;;
19149;SDS011;9707;49.158;8.632;2022-07-24T18:36:22;5.97;;;5.20;;
19149;SDS011;9707;49.158;8.632;2022-07-24T18:42:09;5.50;;;5.00;;
19149;SDS011;9707;49.158;8.632;2022-07-24T18:51:18;5.78;;;5.28;;
19149;SDS011;9707;49.158;8.632;2022-07-24T19:07:03;7.55;;;5.45;;
19149;SDS011;9707;49.158;8.632;2022-07-24T19:12:54;6.38;;;5.78;;
19149;SDS011;9707;49.158;8.632;2022-07-24T19:22:15;6.97;;;5.68;;